sensor_id;sensor_type;location;lat;lon;timestamp;temperature;humidity
36212;DHT22;22247;48.586;13.492;2022-07-06T00:00:36;16.00;99.90
36212;DHT22;22247;48.586;13.492;2022-07-06T00:03:02;16.10;99.90
36212;DHT22;22247;48.586;13.492;2022-07-06T00:05:30;16.10;99.90
36212;DHT22;22247;48.586;13.492;2022-07-06T00:07:58;15.90;99.90
36212;DHT22;22247;48.586;13.492;2022-07-06T00:10:28;15.80;99.90
36212;DHT22;22247;48.586;13.492;2022-07-06T00:12:54;15.90;99.90
36212;DHT22;22247;48.586;13.492;2022-07-06T00:15:20;15.80;99.90
36212;DHT22;22247;48.586;13.492;2022-07-06T00:17:48;15.80;99.90
36212;DHT22;22247;48.586;13.492;2022-07-06T00:20:14;15.60;99.90
36212;DHT22;22247;48.586;13.492;2022-07-06T00:22:40;15.70;99.90
36212;DHT22;22247;48.586;13.492;2022-07-06T00:25:08;15.60;99.90
36212;DHT22;22247;48.586;13.492;2022-07-06T00:27:34;15.50;99.90
36212;DHT22;22247;48.586;13.492;2022-07-06T00:29:59;15.50;99.90
36212;DHT22;22247;48.586;13.492;2022-07-06T00:32:28;15.50;99.90
36212;DHT22;22247;48.586;13.492;2022-07-06T00:34:54;15.50;99.90
36212;DHT22;22247;48.586;13.492;2022-07-06T00:37:19;15.40;99.90
36212;DHT22;22247;48.586;13.492;2022-07-06T00:39:45;15.50;99.90
36212;DHT22;22247;48.586;13.492;2022-07-06T00:42:11;15.50;99.90
36212;DHT22;22247;48.586;13.492;2022-07-06T00:44:41;15.40;99.90
36212;DHT22;22247;48.586;13.492;2022-07-06T00:47:06;15.30;99.90
36212;DHT22;22247;48.586;13.492;2022-07-06T00:49:33;15.10;99.90
36212;DHT22;22247;48.586;13.492;2022-07-06T00:52:20;15.10;99.90
36212;DHT22;22247;48.586;13.492;2022-07-06T00:54:49;14.90;99.90
36212;DHT22;22247;48.586;13.492;2022-07-06T00:57:19;14.80;99.90
36212;DHT22;22247;48.586;13.492;2022-07-06T00:59:47;14.80;99.90
36212;DHT22;22247;48.586;13.492;2022-07-06T01:02:15;14.70;99.90
36212;DHT22;22247;48.586;13.492;2022-07-06T01:04:41;14.70;99.90
36212;DHT22;22247;48.586;13.492;2022-07-06T01:07:07;14.60;99.90
36212;DHT22;22247;48.586;13.492;2022-07-06T01:09:35;14.60;99.90
36212;DHT22;22247;48.586;13.492;2022-07-06T01:12:03;14.60;99.90
36212;DHT22;22247;48.586;13.492;2022-07-06T01:14:29;14.50;99.90
36212;DHT22;22247;48.586;13.492;2022-07-06T01:16:55;14.50;99.90
36212;DHT22;22247;48.586;13.492;2022-07-06T01:19:22;14.50;99.90
36212;DHT22;22247;48.586;13.492;2022-07-06T01:21:50;14.50;99.90
36212;DHT22;22247;48.586;13.492;2022-07-06T01:24:19;14.50;99.90
36212;DHT22;22247;48.586;13.492;2022-07-06T01:26:46;14.60;99.90
36212;DHT22;22247;48.586;13.492;2022-07-06T01:29:17;14.70;99.90
36212;DHT22;22247;48.586;13.492;2022-07-06T01:31:48;15.20;99.90
36212;DHT22;22247;48.586;13.492;2022-07-06T01:34:16;14.70;99.90
36212;DHT22;22247;48.586;13.492;2022-07-06T01:36:45;14.70;99.90
36212;DHT22;22247;48.586;13.492;2022-07-06T01:39:11;14.70;99.90
36212;DHT22;22247;48.586;13.492;2022-07-06T01:41:37;14.70;99.90
36212;DHT22;22247;48.586;13.492;2022-07-06T01:44:06;14.70;99.90
36212;DHT22;22247;48.586;13.492;2022-07-06T01:46:32;14.70;99.90
36212;DHT22;22247;48.586;13.492;2022-07-06T01:48:58;14.70;99.90
36212;DHT22;22247;48.586;13.492;2022-07-06T01:51:24;14.70;99.90
36212;DHT22;22247;48.586;13.492;2022-07-06T01:53:50;14.50;99.90
36212;DHT22;22247;48.586;13.492;2022-07-06T01:56:16;14.40;99.90
36212;DHT22;22247;48.586;13.492;2022-07-06T01:58:45;14.50;99.90
36212;DHT22;22247;48.586;13.492;2022-07-06T02:01:19;14.50;99.90
36212;DHT22;22247;48.586;13.492;2022-07-06T02:03:45;14.50;99.90
36212;DHT22;22247;48.586;13.492;2022-07-06T02:06:14;14.50;99.90
36212;DHT22;22247;48.586;13.492;2022-07-06T02:08:42;14.50;99.90
36212;DHT22;22247;48.586;13.492;2022-07-06T02:11:09;14.60;99.90
36212;DHT22;22247;48.586;13.492;2022-07-06T02:13:35;14.50;99.90
36212;DHT22;22247;48.586;13.492;2022-07-06T02:16:05;14.50;99.90
36212;DHT22;22247;48.586;13.492;2022-07-06T02:18:30;14.60;99.90
36212;DHT22;22247;48.586;13.492;2022-07-06T02:20:58;14.60;99.90
36212;DHT22;22247;48.586;13.492;2022-07-06T02:23:29;14.60;99.90
36212;DHT22;22247;48.586;13.492;2022-07-06T02:25:54;14.60;99.90
36212;DHT22;22247;48.586;13.492;2022-07-06T02:28:20;14.70;99.90
36212;DHT22;22247;48.586;13.492;2022-07-06T02:30:45;14.70;99.90
36212;DHT22;22247;48.586;13.492;2022-07-06T02:33:11;14.70;99.90
36212;DHT22;22247;48.586;13.492;2022-07-06T02:35:37;14.80;99.90
36212;DHT22;22247;48.586;13.492;2022-07-06T02:38:10;14.60;99.90
36212;DHT22;22247;48.586;13.492;2022-07-06T02:40:39;14.40;99.90
36212;DHT22;22247;48.586;13.492;2022-07-06T02:43:04;14.40;99.90
36212;DHT22;22247;48.586;13.492;2022-07-06T02:45:33;14.40;99.90
36212;DHT22;22247;48.586;13.492;2022-07-06T02:48:03;14.40;99.90
36212;DHT22;22247;48.586;13.492;2022-07-06T02:50:33;14.50;99.90
36212;DHT22;22247;48.586;13.492;2022-07-06T02:52:59;14.50;99.90
36212;DHT22;22247;48.586;13.492;2022-07-06T02:55:26;14.60;99.90
36212;DHT22;22247;48.586;13.492;2022-07-06T02:57:52;14.60;99.90
36212;DHT22;22247;48.586;13.492;2022-07-06T03:00:18;14.60;99.90
36212;DHT22;22247;48.586;13.492;2022-07-06T03:02:48;14.60;99.90
36212;DHT22;22247;48.586;13.492;2022-07-06T03:05:16;14.60;99.90
36212;DHT22;22247;48.586;13.492;2022-07-06T03:07:44;14.60;99.90
36212;DHT22;22247;48.586;13.492;2022-07-06T03:10:14;14.70;99.90
36212;DHT22;22247;48.586;13.492;2022-07-06T03:12:40;14.60;99.90
36212;DHT22;22247;48.586;13.492;2022-07-06T03:15:08;14.70;99.90
36212;DHT22;22247;48.586;13.492;2022-07-06T03:17:38;14.70;99.90
36212;DHT22;22247;48.586;13.492;2022-07-06T03:20:05;14.70;99.90
36212;DHT22;22247;48.586;13.492;2022-07-06T03:22:31;14.60;99.90
36212;DHT22;22247;48.586;13.492;2022-07-06T03:24:59;14.60;99.90
36212;DHT22;22247;48.586;13.492;2022-07-06T03:27:24;14.30;99.90
36212;DHT22;22247;48.586;13.492;2022-07-06T03:29:52;14.10;99.90
36212;DHT22;22247;48.586;13.492;2022-07-06T03:32:23;14.00;99.90
36212;DHT22;22247;48.586;13.492;2022-07-06T03:34:51;14.00;99.90
36212;DHT22;22247;48.586;13.492;2022-07-06T03:37:23;14.00;99.90
36212;DHT22;22247;48.586;13.492;2022-07-06T03:39:49;14.00;99.90
36212;DHT22;22247;48.586;13.492;2022-07-06T03:42:16;13.90;99.90
36212;DHT22;22247;48.586;13.492;2022-07-06T03:44:44;13.90;99.90
36212;DHT22;22247;48.586;13.492;2022-07-06T03:47:10;13.90;99.90
36212;DHT22;22247;48.586;13.492;2022-07-06T03:49:38;13.90;99.90
36212;DHT22;22247;48.586;13.492;2022-07-06T03:52:03;14.00;99.90
36212;DHT22;22247;48.586;13.492;2022-07-06T03:54:31;14.10;99.90
36212;DHT22;22247;48.586;13.492;2022-07-06T03:56:57;14.10;99.90
36212;DHT22;22247;48.586;13.492;2022-07-06T03:59:23;14.00;99.90
36212;DHT22;22247;48.586;13.492;2022-07-06T04:01:48;14.10;99.90
36212;DHT22;22247;48.586;13.492;2022-07-06T04:04:19;14.10;99.90
36212;DHT22;22247;48.586;13.492;2022-07-06T04:06:49;14.20;99.90
36212;DHT22;22247;48.586;13.492;2022-07-06T04:09:17;14.10;99.90
36212;DHT22;22247;48.586;13.492;2022-07-06T04:11:42;14.20;99.90
36212;DHT22;22247;48.586;13.492;2022-07-06T04:14:10;14.80;99.90
36212;DHT22;22247;48.586;13.492;2022-07-06T04:16:39;14.40;99.90
36212;DHT22;22247;48.586;13.492;2022-07-06T04:19:06;14.50;99.90
36212;DHT22;22247;48.586;13.492;2022-07-06T04:21:32;14.50;99.90
36212;DHT22;22247;48.586;13.492;2022-07-06T04:24:03;14.60;99.90
36212;DHT22;22247;48.586;13.492;2022-07-06T04:26:28;14.60;99.90
36212;DHT22;22247;48.586;13.492;2022-07-06T04:28:54;14.60;99.90
36212;DHT22;22247;48.586;13.492;2022-07-06T04:31:22;14.60;99.90
36212;DHT22;22247;48.586;13.492;2022-07-06T04:33:50;14.70;99.90
36212;DHT22;22247;48.586;13.492;2022-07-06T04:36:15;14.50;99.90
36212;DHT22;22247;48.586;13.492;2022-07-06T04:38:41;14.30;99.90
36212;DHT22;22247;48.586;13.492;2022-07-06T04:41:09;14.20;99.90
36212;DHT22;22247;48.586;13.492;2022-07-06T04:43:35;14.10;99.90
36212;DHT22;22247;48.586;13.492;2022-07-06T04:46:03;14.10;99.90
36212;DHT22;22247;48.586;13.492;2022-07-06T04:48:33;14.10;99.90
36212;DHT22;22247;48.586;13.492;2022-07-06T04:51:01;14.00;99.90
36212;DHT22;22247;48.586;13.492;2022-07-06T04:53:30;14.00;99.90
36212;DHT22;22247;48.586;13.492;2022-07-06T04:55:56;14.20;99.90
36212;DHT22;22247;48.586;13.492;2022-07-06T04:58:22;14.30;99.90
36212;DHT22;22247;48.586;13.492;2022-07-06T05:00:47;14.20;99.90
36212;DHT22;22247;48.586;13.492;2022-07-06T05:03:15;14.50;99.90
36212;DHT22;22247;48.586;13.492;2022-07-06T05:05:41;14.80;99.90
36212;DHT22;22247;48.586;13.492;2022-07-06T05:08:11;14.90;99.90
36212;DHT22;22247;48.586;13.492;2022-07-06T05:10:37;15.10;99.90
36212;DHT22;22247;48.586;13.492;2022-07-06T05:13:02;15.20;99.90
36212;DHT22;22247;48.586;13.492;2022-07-06T05:15:30;15.30;99.90
36212;DHT22;22247;48.586;13.492;2022-07-06T05:17:58;16.00;99.90
36212;DHT22;22247;48.586;13.492;2022-07-06T05:20:26;15.50;99.90
36212;DHT22;22247;48.586;13.492;2022-07-06T05:22:54;15.70;99.90
36212;DHT22;22247;48.586;13.492;2022-07-06T05:25:25;15.70;99.90
36212;DHT22;22247;48.586;13.492;2022-07-06T05:27:50;15.80;99.90
36212;DHT22;22247;48.586;13.492;2022-07-06T05:30:16;16.20;99.90
36212;DHT22;22247;48.586;13.492;2022-07-06T05:32:44;16.20;99.90
36212;DHT22;22247;48.586;13.492;2022-07-06T05:35:10;16.10;99.90
36212;DHT22;22247;48.586;13.492;2022-07-06T05:37:36;16.40;99.90
36212;DHT22;22247;48.586;13.492;2022-07-06T05:40:01;16.50;99.90
36212;DHT22;22247;48.586;13.492;2022-07-06T05:42:29;16.30;99.90
36212;DHT22;22247;48.586;13.492;2022-07-06T05:44:55;16.10;99.90
36212;DHT22;22247;48.586;13.492;2022-07-06T05:47:22;15.90;99.90
36212;DHT22;22247;48.586;13.492;2022-07-06T05:50:09;16.20;99.90
36212;DHT22;22247;48.586;13.492;2022-07-06T05:52:54;16.30;99.90
36212;DHT22;22247;48.586;13.492;2022-07-06T05:55:20;16.10;99.90
36212;DHT22;22247;48.586;13.492;2022-07-06T05:57:48;15.90;99.90
36212;DHT22;22247;48.586;13.492;2022-07-06T06:00:18;16.40;99.90
36212;DHT22;22247;48.586;13.492;2022-07-06T06:02:46;15.80;99.90
36212;DHT22;22247;48.586;13.492;2022-07-06T06:05:12;15.60;99.90
36212;DHT22;22247;48.586;13.492;2022-07-06T06:10:10;15.60;99.90
36212;DHT22;22247;48.586;13.492;2022-07-06T06:12:39;16.10;99.90
36212;DHT22;22247;48.586;13.492;2022-07-06T06:15:05;16.00;99.90
36212;DHT22;22247;48.586;13.492;2022-07-06T06:17:32;16.10;99.90
36212;DHT22;22247;48.586;13.492;2022-07-06T06:19:59;16.70;99.90
36212;DHT22;22247;48.586;13.492;2022-07-06T06:22:27;17.40;99.90
36212;DHT22;22247;48.586;13.492;2022-07-06T06:24:55;17.80;99.90
36212;DHT22;22247;48.586;13.492;2022-07-06T06:27:20;18.20;99.90
36212;DHT22;22247;48.586;13.492;2022-07-06T06:29:46;18.00;99.90
36212;DHT22;22247;48.586;13.492;2022-07-06T06:32:12;18.20;99.90
36212;DHT22;22247;48.586;13.492;2022-07-06T06:34:39;18.10;99.90
36212;DHT22;22247;48.586;13.492;2022-07-06T06:39:33;18.60;99.90
36212;DHT22;22247;48.586;13.492;2022-07-06T06:41:59;18.80;99.90
36212;DHT22;22247;48.586;13.492;2022-07-06T06:44:27;19.00;99.90
36212;DHT22;22247;48.586;13.492;2022-07-06T06:46:52;18.30;99.90
36212;DHT22;22247;48.586;13.492;2022-07-06T06:49:18;18.40;99.90
36212;DHT22;22247;48.586;13.492;2022-07-06T06:51:44;18.30;99.90
36212;DHT22;22247;48.586;13.492;2022-07-06T06:54:12;18.60;99.90
36212;DHT22;22247;48.586;13.492;2022-07-06T06:56:38;18.50;99.90
36212;DHT22;22247;48.586;13.492;2022-07-06T06:59:03;18.50;99.90
36212;DHT22;22247;48.586;13.492;2022-07-06T07:01:32;19.00;99.90
36212;DHT22;22247;48.586;13.492;2022-07-06T07:04:00;19.50;99.90
36212;DHT22;22247;48.586;13.492;2022-07-06T07:06:26;19.90;99.90
36212;DHT22;22247;48.586;13.492;2022-07-06T07:08:53;19.80;99.90
36212;DHT22;22247;48.586;13.492;2022-07-06T07:11:21;20.00;99.90
36212;DHT22;22247;48.586;13.492;2022-07-06T07:13:46;20.20;99.90
36212;DHT22;22247;48.586;13.492;2022-07-06T07:16:12;20.10;99.90
36212;DHT22;22247;48.586;13.492;2022-07-06T07:18:40;20.40;99.90
36212;DHT22;22247;48.586;13.492;2022-07-06T07:21:08;20.60;99.90
36212;DHT22;22247;48.586;13.492;2022-07-06T07:23:34;20.40;99.90
36212;DHT22;22247;48.586;13.492;2022-07-06T07:26:06;20.40;99.90
36212;DHT22;22247;48.586;13.492;2022-07-06T07:28:32;20.60;99.90
36212;DHT22;22247;48.586;13.492;2022-07-06T07:30:57;21.10;99.90
36212;DHT22;22247;48.586;13.492;2022-07-06T07:33:23;21.00;99.90
36212;DHT22;22247;48.586;13.492;2022-07-06T07:35:51;20.90;99.90
36212;DHT22;22247;48.586;13.492;2022-07-06T07:38:19;20.50;99.90
36212;DHT22;22247;48.586;13.492;2022-07-06T07:40:45;20.10;99.90
36212;DHT22;22247;48.586;13.492;2022-07-06T07:43:15;19.90;99.90
36212;DHT22;22247;48.586;13.492;2022-07-06T07:45:41;19.90;99.90
36212;DHT22;22247;48.586;13.492;2022-07-06T07:48:07;19.90;99.90
36212;DHT22;22247;48.586;13.492;2022-07-06T07:50:35;20.30;99.90
36212;DHT22;22247;48.586;13.492;2022-07-06T07:53:01;20.40;99.90
36212;DHT22;22247;48.586;13.492;2022-07-06T07:55:29;20.40;99.90
36212;DHT22;22247;48.586;13.492;2022-07-06T07:57:55;20.60;99.90
36212;DHT22;22247;48.586;13.492;2022-07-06T08:00:21;20.60;99.90
36212;DHT22;22247;48.586;13.492;2022-07-06T08:02:49;20.50;99.90
36212;DHT22;22247;48.586;13.492;2022-07-06T08:05:17;20.70;99.90
36212;DHT22;22247;48.586;13.492;2022-07-06T08:07:44;20.90;99.90
36212;DHT22;22247;48.586;13.492;2022-07-06T08:10:14;21.20;99.90
36212;DHT22;22247;48.586;13.492;2022-07-06T08:12:42;21.60;99.90
36212;DHT22;22247;48.586;13.492;2022-07-06T08:15:10;21.80;99.90
36212;DHT22;22247;48.586;13.492;2022-07-06T08:17:38;21.80;99.90
36212;DHT22;22247;48.586;13.492;2022-07-06T08:20:06;21.20;99.90
36212;DHT22;22247;48.586;13.492;2022-07-06T08:22:35;20.80;99.90
36212;DHT22;22247;48.586;13.492;2022-07-06T08:25:04;20.60;99.90
36212;DHT22;22247;48.586;13.492;2022-07-06T08:27:32;20.50;99.90
36212;DHT22;22247;48.586;13.492;2022-07-06T08:29:58;20.60;99.90
36212;DHT22;22247;48.586;13.492;2022-07-06T08:32:25;20.30;99.90
36212;DHT22;22247;48.586;13.492;2022-07-06T08:34:51;20.70;99.90
36212;DHT22;22247;48.586;13.492;2022-07-06T08:37:21;20.50;99.90
36212;DHT22;22247;48.586;13.492;2022-07-06T08:39:49;20.50;99.90
36212;DHT22;22247;48.586;13.492;2022-07-06T08:42:16;21.40;99.90
36212;DHT22;22247;48.586;13.492;2022-07-06T08:47:12;21.40;99.90
36212;DHT22;22247;48.586;13.492;2022-07-06T08:49:39;21.40;99.90
36212;DHT22;22247;48.586;13.492;2022-07-06T08:52:07;21.50;99.90
36212;DHT22;22247;48.586;13.492;2022-07-06T08:54:37;21.60;99.90
36212;DHT22;22247;48.586;13.492;2022-07-06T08:57:06;21.50;99.90
36212;DHT22;22247;48.586;13.492;2022-07-06T08:59:32;21.30;99.90
36212;DHT22;22247;48.586;13.492;2022-07-06T09:01:59;21.50;99.90
36212;DHT22;22247;48.586;13.492;2022-07-06T09:04:25;21.60;99.90
36212;DHT22;22247;48.586;13.492;2022-07-06T09:06:54;21.70;99.90
36212;DHT22;22247;48.586;13.492;2022-07-06T09:09:21;21.80;99.00
36212;DHT22;22247;48.586;13.492;2022-07-06T09:11:51;21.70;99.60
36212;DHT22;22247;48.586;13.492;2022-07-06T09:14:20;21.80;99.90
36212;DHT22;22247;48.586;13.492;2022-07-06T09:16:52;21.80;99.70
36212;DHT22;22247;48.586;13.492;2022-07-06T09:19:18;22.00;99.90
36212;DHT22;22247;48.586;13.492;2022-07-06T09:21:46;22.10;98.50
36212;DHT22;22247;48.586;13.492;2022-07-06T09:24:13;22.00;97.30
36212;DHT22;22247;48.586;13.492;2022-07-06T09:26:39;22.10;97.30
36212;DHT22;22247;48.586;13.492;2022-07-06T09:29:08;22.30;99.60
36212;DHT22;22247;48.586;13.492;2022-07-06T09:31:35;22.60;99.20
36212;DHT22;22247;48.586;13.492;2022-07-06T09:34:06;23.00;99.90
36212;DHT22;22247;48.586;13.492;2022-07-06T09:36:51;23.20;99.90
36212;DHT22;22247;48.586;13.492;2022-07-06T09:39:24;23.10;99.90
36212;DHT22;22247;48.586;13.492;2022-07-06T09:41:54;22.80;99.90
36212;DHT22;22247;48.586;13.492;2022-07-06T09:44:34;22.50;99.90
36212;DHT22;22247;48.586;13.492;2022-07-06T09:47:06;22.60;99.90
36212;DHT22;22247;48.586;13.492;2022-07-06T09:49:35;22.80;99.90
36212;DHT22;22247;48.586;13.492;2022-07-06T09:52:12;23.10;99.90
36212;DHT22;22247;48.586;13.492;2022-07-06T09:54:40;23.30;99.90
36212;DHT22;22247;48.586;13.492;2022-07-06T09:57:07;23.40;99.90
36212;DHT22;22247;48.586;13.492;2022-07-06T09:59:35;23.80;99.90
36212;DHT22;22247;48.586;13.492;2022-07-06T10:02:04;23.60;99.90
36212;DHT22;22247;48.586;13.492;2022-07-06T10:04:32;23.60;99.90
36212;DHT22;22247;48.586;13.492;2022-07-06T10:06:58;23.60;99.90
36212;DHT22;22247;48.586;13.492;2022-07-06T10:09:28;23.40;99.90
36212;DHT22;22247;48.586;13.492;2022-07-06T10:12:01;23.40;99.90
36212;DHT22;22247;48.586;13.492;2022-07-06T10:14:29;23.60;99.90
36212;DHT22;22247;48.586;13.492;2022-07-06T10:16:56;23.70;99.90
36212;DHT22;22247;48.586;13.492;2022-07-06T10:19:25;23.80;99.90
36212;DHT22;22247;48.586;13.492;2022-07-06T10:21:54;24.00;99.90
36212;DHT22;22247;48.586;13.492;2022-07-06T10:24:27;24.10;99.90
36212;DHT22;22247;48.586;13.492;2022-07-06T10:26:53;23.90;99.90
36212;DHT22;22247;48.586;13.492;2022-07-06T10:29:20;24.00;99.90
36212;DHT22;22247;48.586;13.492;2022-07-06T10:31:48;24.30;99.90
36212;DHT22;22247;48.586;13.492;2022-07-06T10:34:16;24.30;99.90
36212;DHT22;22247;48.586;13.492;2022-07-06T10:36:44;24.40;99.90
36212;DHT22;22247;48.586;13.492;2022-07-06T10:39:16;24.40;99.90
36212;DHT22;22247;48.586;13.492;2022-07-06T10:42:00;24.20;99.90
36212;DHT22;22247;48.586;13.492;2022-07-06T10:44:30;24.30;99.90
36212;DHT22;22247;48.586;13.492;2022-07-06T10:46:59;24.40;99.90
36212;DHT22;22247;48.586;13.492;2022-07-06T10:49:28;24.50;99.90
36212;DHT22;22247;48.586;13.492;2022-07-06T10:51:58;24.70;99.90
36212;DHT22;22247;48.586;13.492;2022-07-06T10:54:24;24.60;99.90
36212;DHT22;22247;48.586;13.492;2022-07-06T10:56:51;24.50;99.90
36212;DHT22;22247;48.586;13.492;2022-07-06T10:59:21;24.30;99.90
36212;DHT22;22247;48.586;13.492;2022-07-06T11:04:34;24.70;94.60
36212;DHT22;22247;48.586;13.492;2022-07-06T11:07:09;24.90;94.70
36212;DHT22;22247;48.586;13.492;2022-07-06T11:09:36;25.10;97.70
36212;DHT22;22247;48.586;13.492;2022-07-06T11:12:15;24.80;87.90
36212;DHT22;22247;48.586;13.492;2022-07-06T11:14:44;23.90;97.80
36212;DHT22;22247;48.586;13.492;2022-07-06T11:17:12;23.80;88.10
36212;DHT22;22247;48.586;13.492;2022-07-06T11:19:48;23.60;88.70
36212;DHT22;22247;48.586;13.492;2022-07-06T11:22:15;23.80;89.80
36212;DHT22;22247;48.586;13.492;2022-07-06T11:24:45;24.10;88.90
36212;DHT22;22247;48.586;13.492;2022-07-06T11:27:11;24.10;89.10
36212;DHT22;22247;48.586;13.492;2022-07-06T11:29:39;24.40;91.00
36212;DHT22;22247;48.586;13.492;2022-07-06T11:32:07;24.50;97.00
36212;DHT22;22247;48.586;13.492;2022-07-06T11:34:36;24.50;90.80
36212;DHT22;22247;48.586;13.492;2022-07-06T11:37:11;24.70;92.80
36212;DHT22;22247;48.586;13.492;2022-07-06T11:39:41;24.90;86.70
36212;DHT22;22247;48.586;13.492;2022-07-06T11:42:12;25.10;87.20
36212;DHT22;22247;48.586;13.492;2022-07-06T11:44:39;25.10;83.90
36212;DHT22;22247;48.586;13.492;2022-07-06T11:47:11;24.80;89.00
36212;DHT22;22247;48.586;13.492;2022-07-06T11:49:38;24.90;87.90
36212;DHT22;22247;48.586;13.492;2022-07-06T11:52:12;24.90;89.00
36212;DHT22;22247;48.586;13.492;2022-07-06T11:54:38;24.80;83.70
36212;DHT22;22247;48.586;13.492;2022-07-06T11:57:10;25.10;90.30
36212;DHT22;22247;48.586;13.492;2022-07-06T11:59:38;25.40;89.70
36212;DHT22;22247;48.586;13.492;2022-07-06T12:04:36;25.30;98.70
36212;DHT22;22247;48.586;13.492;2022-07-06T12:07:06;25.30;98.50
36212;DHT22;22247;48.586;13.492;2022-07-06T12:09:39;25.50;97.60
36212;DHT22;22247;48.586;13.492;2022-07-06T12:12:06;25.80;96.30
36212;DHT22;22247;48.586;13.492;2022-07-06T12:14:35;26.00;99.90
36212;DHT22;22247;48.586;13.492;2022-07-06T12:17:12;26.10;99.90
36212;DHT22;22247;48.586;13.492;2022-07-06T12:19:39;26.10;96.90
36212;DHT22;22247;48.586;13.492;2022-07-06T12:22:08;25.90;97.60
36212;DHT22;22247;48.586;13.492;2022-07-06T12:24:41;25.80;97.30
36212;DHT22;22247;48.586;13.492;2022-07-06T12:27:18;25.60;98.20
36212;DHT22;22247;48.586;13.492;2022-07-06T12:29:47;25.40;99.00
36212;DHT22;22247;48.586;13.492;2022-07-06T12:32:19;25.10;97.60
36212;DHT22;22247;48.586;13.492;2022-07-06T12:35:03;25.10;97.90
36212;DHT22;22247;48.586;13.492;2022-07-06T12:37:31;24.80;98.30
36212;DHT22;22247;48.586;13.492;2022-07-06T12:39:59;25.10;98.20
36212;DHT22;22247;48.586;13.492;2022-07-06T12:42:28;25.50;97.00
36212;DHT22;22247;48.586;13.492;2022-07-06T12:44:54;25.60;97.70
36212;DHT22;22247;48.586;13.492;2022-07-06T12:47:24;25.20;96.60
36212;DHT22;22247;48.586;13.492;2022-07-06T12:50:07;25.00;97.10
36212;DHT22;22247;48.586;13.492;2022-07-06T12:52:35;25.10;97.70
36212;DHT22;22247;48.586;13.492;2022-07-06T12:55:02;25.60;95.90
36212;DHT22;22247;48.586;13.492;2022-07-06T12:57:45;25.50;94.80
36212;DHT22;22247;48.586;13.492;2022-07-06T13:00:11;25.50;95.30
36212;DHT22;22247;48.586;13.492;2022-07-06T13:02:44;25.40;97.00
36212;DHT22;22247;48.586;13.492;2022-07-06T13:05:13;25.50;96.10
36212;DHT22;22247;48.586;13.492;2022-07-06T13:07:45;25.50;95.90
36212;DHT22;22247;48.586;13.492;2022-07-06T13:10:14;24.90;95.90
36212;DHT22;22247;48.586;13.492;2022-07-06T13:12:40;25.00;96.90
36212;DHT22;22247;48.586;13.492;2022-07-06T13:15:09;25.20;98.50
36212;DHT22;22247;48.586;13.492;2022-07-06T13:17:36;25.80;97.00
36212;DHT22;22247;48.586;13.492;2022-07-06T13:20:09;25.70;95.60
36212;DHT22;22247;48.586;13.492;2022-07-06T13:22:38;25.60;95.60
36212;DHT22;22247;48.586;13.492;2022-07-06T13:25:05;25.70;94.60
36212;DHT22;22247;48.586;13.492;2022-07-06T13:27:33;25.70;95.90
36212;DHT22;22247;48.586;13.492;2022-07-06T13:29:59;26.10;95.40
36212;DHT22;22247;48.586;13.492;2022-07-06T13:32:25;26.00;94.50
36212;DHT22;22247;48.586;13.492;2022-07-06T13:34:50;26.10;95.20
36212;DHT22;22247;48.586;13.492;2022-07-06T13:37:19;26.20;96.60
36212;DHT22;22247;48.586;13.492;2022-07-06T13:39:45;26.00;94.80
36212;DHT22;22247;48.586;13.492;2022-07-06T13:42:10;25.50;95.50
36212;DHT22;22247;48.586;13.492;2022-07-06T13:44:36;25.30;94.60
36212;DHT22;22247;48.586;13.492;2022-07-06T13:47:07;25.20;95.30
36212;DHT22;22247;48.586;13.492;2022-07-06T13:49:33;25.30;95.30
36212;DHT22;22247;48.586;13.492;2022-07-06T13:52:01;25.80;94.70
36212;DHT22;22247;48.586;13.492;2022-07-06T13:54:32;25.40;94.80
36212;DHT22;22247;48.586;13.492;2022-07-06T13:57:03;25.00;94.90
36212;DHT22;22247;48.586;13.492;2022-07-06T13:59:32;24.70;96.60
36212;DHT22;22247;48.586;13.492;2022-07-06T14:01:59;24.50;96.10
36212;DHT22;22247;48.586;13.492;2022-07-06T14:04:28;24.90;95.30
36212;DHT22;22247;48.586;13.492;2022-07-06T14:06:56;25.80;96.40
36212;DHT22;22247;48.586;13.492;2022-07-06T14:09:24;26.40;94.10
36212;DHT22;22247;48.586;13.492;2022-07-06T14:11:49;26.70;92.80
36212;DHT22;22247;48.586;13.492;2022-07-06T14:16:41;26.10;92.70
36212;DHT22;22247;48.586;13.492;2022-07-06T14:19:09;26.20;95.50
36212;DHT22;22247;48.586;13.492;2022-07-06T14:21:37;26.80;97.00
36212;DHT22;22247;48.586;13.492;2022-07-06T14:24:03;27.20;93.30
36212;DHT22;22247;48.586;13.492;2022-07-06T14:26:31;27.00;93.30
36212;DHT22;22247;48.586;13.492;2022-07-06T14:29:02;26.70;94.00
36212;DHT22;22247;48.586;13.492;2022-07-06T14:31:31;26.60;93.40
36212;DHT22;22247;48.586;13.492;2022-07-06T14:33:56;26.70;95.50
36212;DHT22;22247;48.586;13.492;2022-07-06T14:36:24;27.10;95.10
36212;DHT22;22247;48.586;13.492;2022-07-06T14:38:50;26.90;94.70
36212;DHT22;22247;48.586;13.492;2022-07-06T14:41:18;27.10;94.50
36212;DHT22;22247;48.586;13.492;2022-07-06T14:43:43;26.80;95.10
36212;DHT22;22247;48.586;13.492;2022-07-06T14:46:14;26.90;94.00
36212;DHT22;22247;48.586;13.492;2022-07-06T14:48:39;27.30;95.90
36212;DHT22;22247;48.586;13.492;2022-07-06T14:51:10;27.40;92.90
36212;DHT22;22247;48.586;13.492;2022-07-06T14:53:36;27.40;73.60
36212;DHT22;22247;48.586;13.492;2022-07-06T14:56:01;27.60;77.10
36212;DHT22;22247;48.586;13.492;2022-07-06T14:58:31;27.70;77.80
36212;DHT22;22247;48.586;13.492;2022-07-06T15:00:57;27.70;79.70
36212;DHT22;22247;48.586;13.492;2022-07-06T15:03:22;27.40;71.40
36212;DHT22;22247;48.586;13.492;2022-07-06T15:05:48;27.40;70.80
36212;DHT22;22247;48.586;13.492;2022-07-06T15:08:14;27.70;75.90
36212;DHT22;22247;48.586;13.492;2022-07-06T15:10:43;28.00;95.30
36212;DHT22;22247;48.586;13.492;2022-07-06T15:13:09;27.00;93.80
36212;DHT22;22247;48.586;13.492;2022-07-06T15:15:38;26.20;94.00
36212;DHT22;22247;48.586;13.492;2022-07-06T15:18:05;26.10;95.50
36212;DHT22;22247;48.586;13.492;2022-07-06T15:20:36;25.80;95.90
36212;DHT22;22247;48.586;13.492;2022-07-06T15:23:01;25.30;97.10
36212;DHT22;22247;48.586;13.492;2022-07-06T15:25:27;24.70;95.30
36212;DHT22;22247;48.586;13.492;2022-07-06T15:27:56;24.70;97.30
36212;DHT22;22247;48.586;13.492;2022-07-06T15:30:21;24.60;96.20
36212;DHT22;22247;48.586;13.492;2022-07-06T15:32:48;24.50;97.00
36212;DHT22;22247;48.586;13.492;2022-07-06T15:35:16;24.60;98.40